Time;durP1;ratioP1;P1;durP2;ratioP2;P2;SDS_P1;SDS_P2;PMS_P1;PMS_P2;Temp;Humidity;BMP_temperature;BMP_pressure;BME280_temperature;BME280_humidity;BME280_pressure;Samples;Min_cycle;Max_cycle;Signal;HPM_P1;HPM_P2
2023/06/26 00:02:28;;;;;;;21.10;8.50;;;;;;;17.41;84.26;98931.00;67848;1278;1019720;-69
2023/06/26 00:05:32;;;;;;;21.30;8.00;;;;;;;17.50;84.25;98926.09;67823;1278;1016458;-70
2023/06/26 00:08:35;;;;;;;26.10;8.50;;;;;;;17.54;84.50;98928.06;67837;1278;1016361;-64
2023/06/26 00:11:38;;;;;;;22.80;7.90;;;;;;;17.55;84.62;98923.34;67643;1278;1018055;-69
2023/06/26 00:14:41;;;;;;;20.70;7.50;;;;;;;17.53;84.56;98925.98;67823;1278;1016481;-70
2023/06/26 00:17:44;;;;;;;19.90;7.10;;;;;;;17.59;84.52;98927.82;67802;1278;1015717;-69
2023/06/26 00:20:47;;;;;;;20.20;8.10;;;;;;;17.52;84.42;98925.02;67861;1278;1016474;-68
2023/06/26 00:24:10;;;;;;;21.00;8.90;;;;;;;17.43;85.05;98918.73;67836;1278;1016810;-65
2023/06/26 00:27:13;;;;;;;20.70;7.90;;;;;;;17.45;84.72;98922.65;67779;1278;1016994;-67
2023/06/26 00:30:17;;;;;;;16.70;5.50;;;;;;;17.47;84.44;98925.08;67820;1278;1016297;-70
2023/06/26 00:33:19;;;;;;;;;;;;;;;17.40;84.53;98924.33;67847;1278;1016262;-70
2023/06/26 00:36:23;;;;;;;;;;;;;;;17.38;84.26;98921.32;67833;1278;1016520;-66
2023/06/26 00:39:26;;;;;;;12.40;3.90;;;;;;;17.23;83.21;98918.58;67828;1278;1016653;-64
2023/06/26 00:42:29;;;;;;;16.50;5.70;;;;;;;17.12;82.10;98919.73;67812;1278;1016439;-67
2023/06/26 00:45:32;;;;;;;12.90;4.20;;;;;;;16.97;83.05;98921.86;67667;1278;1016395;-69
2023/06/26 00:48:35;;;;;;;18.50;6.40;;;;;;;16.85;83.15;98918.13;67784;1278;1016163;-65
2023/06/26 00:51:38;;;;;;;22.30;8.00;;;;;;;16.77;83.50;98916.80;67800;1278;1016435;-64
2023/06/26 00:54:41;;;;;;;22.80;8.20;;;;;;;16.73;84.50;98917.54;67812;1278;1019004;-65
2023/06/26 00:57:45;;;;;;;18.70;6.70;;;;;;;16.80;85.41;98917.44;67840;1278;1016444;-69
2023/06/26 01:00:49;;;;;;;18.80;6.50;;;;;;;16.97;84.56;98917.27;67850;1278;1016407;-62
2023/06/26 01:03:56;;;;;;;21.60;7.80;;;;;;;16.95;84.65;98919.93;67842;1278;1016456;-69
2023/06/26 01:07:01;;;;;;;11.90;3.80;;;;;;;16.95;84.48;98917.42;67823;1278;1016362;-69
2023/06/26 01:10:05;;;;;;;9.00;3.50;;;;;;;16.88;82.92;98914.00;67817;1278;1016385;-69
2023/06/26 01:13:07;;;;;;;14.40;4.10;;;;;;;16.89;82.95;98913.91;67776;1278;1016413;-70
2023/06/26 01:16:09;;;;;;;;;;;;;;;16.89;83.11;98910.38;67857;1278;1016462;-70
2023/06/26 01:19:12;;;;;;;;;;;;;;;16.75;82.86;98908.54;67822;1278;1016452;-66
2023/06/26 01:22:15;;;;;;;;;;;;;;;16.56;82.83;98907.30;67776;1278;1016397;-69
2023/06/26 01:25:18;;;;;;;20.10;7.00;;;;;;;16.42;83.48;98905.63;67822;1278;1016020;-70
2023/06/26 01:28:24;;;;;;;22.60;8.60;;;;;;;16.37;84.05;98909.24;67759;1278;1016856;-70
2023/06/26 01:31:27;;;;;;;20.70;7.70;;;;;;;16.39;84.71;98907.09;67846;1278;1016501;-69
2023/06/26 01:34:30;;;;;;;18.00;6.10;;;;;;;16.35;85.92;98906.61;67887;1278;1018016;-69
2023/06/26 01:37:37;;;;;;;20.10;6.90;;;;;;;16.34;86.51;98908.27;67777;1278;1016226;-69
2023/06/26 01:40:44;;;;;;;13.40;3.80;;;;;;;16.34;86.62;98899.83;67840;1278;1016085;-68
2023/06/26 01:44:02;;;;;;;9.80;3.10;;;;;;;16.29;86.54;98897.05;67782;1278;1016263;-69
2023/06/26 01:47:05;;;;;;;13.80;4.10;;;;;;;16.25;86.71;98899.84;67805;1278;1016823;-70
2023/06/26 01:50:16;;;;;;;16.70;5.60;;;;;;;16.29;87.02;98897.17;67721;1278;1016402;-69
2023/06/26 01:53:19;;;;;;;20.30;6.80;;;;;;;16.42;86.13;98899.11;67801;1278;1016065;-69
2023/06/26 01:56:21;;;;;;;20.10;6.00;;;;;;;16.37;86.32;98893.50;67825;1278;1016341;-70
2023/06/26 01:59:24;;;;;;;;;;;;;;;16.32;86.35;98893.44;67850;1278;1016018;-64
2023/06/26 02:02:29;;;;;;;19.50;5.90;;;;;;;16.17;87.37;98897.11;67832;1278;1016407;-69
2023/06/26 02:05:32;;;;;;;19.90;6.30;;;;;;;16.17;86.82;98892.02;67792;1278;1016446;-66
2023/06/26 02:08:36;;;;;;;17.80;5.10;;;;;;;16.36;84.83;98889.36;67833;1278;1016259;-69
2023/06/26 02:11:39;;;;;;;19.40;6.60;;;;;;;16.34;83.78;98886.52;67852;1278;1016507;-69
2023/06/26 02:14:42;;;;;;;20.80;6.50;;;;;;;16.28;83.17;98883.14;67783;1278;1016659;-68
2023/06/26 02:17:48;;;;;;;23.40;7.20;;;;;;;16.08;83.84;98885.50;67812;1278;1016385;-69
2023/06/26 02:20:51;;;;;;;18.70;6.90;;;;;;;16.05;84.27;98883.33;67838;1278;1016420;-69
2023/06/26 02:23:54;;;;;;;;;;;;;;;16.05;83.36;98883.86;67817;1278;1016481;-69
2023/06/26 02:26:58;;;;;;;16.60;5.80;;;;;;;15.95;83.64;98882.16;67830;1278;1016510;-69
2023/06/26 02:30:02;;;;;;;19.10;6.00;;;;;;;15.95;83.87;98882.73;67821;1278;1016434;-69
2023/06/26 02:33:05;;;;;;;19.30;6.50;;;;;;;15.93;84.39;98879.50;67806;1278;1016562;-69
2023/06/26 02:36:08;;;;;;;18.90;6.40;;;;;;;15.85;85.19;98880.55;67783;1278;1016335;-69
2023/06/26 02:39:10;;;;;;;15.80;5.10;;;;;;;15.85;85.94;98881.72;67784;1278;1018589;-69
2023/06/26 02:42:13;;;;;;;19.90;6.50;;;;;;;15.95;85.01;98884.30;67785;1278;1017301;-66
2023/06/26 02:45:16;;;;;;;10.40;3.60;;;;;;;15.90;85.55;98883.77;67802;1278;1016381;-69
2023/06/26 02:48:19;;;;;;;14.10;4.50;;;;;;;15.92;85.29;98883.98;67774;1278;1015864;-69
2023/06/26 02:51:22;;;;;;;14.80;4.90;;;;;;;15.89;85.88;98884.12;67786;1278;1016299;-69
2023/06/26 02:54:27;;;;;;;14.70;4.30;;;;;;;15.94;86.00;98886.65;67775;1278;1016479;-66
2023/06/26 02:57:29;;;;;;;5.70;2.30;;;;;;;16.14;84.77;98886.10;67740;1278;1016109;-69
2023/06/26 03:00:32;;;;;;;11.90;3.70;;;;;;;16.27;84.14;98884.30;67820;1278;1019935;-69
2023/06/26 03:03:40;;;;;;;11.10;3.60;;;;;;;16.20;83.66;98883.14;67849;1278;1016501;-68
2023/06/26 03:06:43;;;;;;;12.50;3.80;;;;;;;16.22;83.89;98886.28;67796;1278;1017207;-69
2023/06/26 03:09:45;;;;;;;17.20;4.70;;;;;;;16.24;84.61;98882.45;67814;1278;1017655;-69
2023/06/26 03:12:56;;;;;;;16.00;4.30;;;;;;;16.41;83.84;98883.30;67768;1278;1016465;-68
2023/06/26 03:15:59;;;;;;;11.60;3.80;;;;;;;16.58;83.29;98879.45;67828;1278;1016497;-69
2023/06/26 03:19:02;;;;;;;11.10;4.00;;;;;;;16.81;82.36;98880.98;67817;1278;1015857;-69
2023/06/26 03:22:05;;;;;;;19.00;5.70;;;;;;;17.03;81.88;98882.30;67767;1278;1016627;-68
2023/06/26 03:25:08;;;;;;;17.20;5.70;;;;;;;17.17;81.68;98878.50;67759;1278;1016439;-69
2023/06/26 03:28:11;;;;;;;17.90;5.60;;;;;;;17.32;81.66;98882.77;67840;1278;1015594;-69
2023/06/26 03:31:14;;;;;;;16.70;5.40;;;;;;;17.53;81.59;98880.44;67748;1278;1015995;-65
2023/06/26 03:34:17;;;;;;;20.40;6.20;;;;;;;17.71;80.64;98880.93;67842;1278;1016423;-68
2023/06/26 03:37:20;;;;;;;20.30;6.60;;;;;;;17.79;80.19;98879.50;67790;1278;1016239;-68
2023/06/26 03:40:23;;;;;;;17.60;6.20;;;;;;;17.86;79.80;98879.93;67792;1278;1016429;-65
2023/06/26 03:43:25;;;;;;;22.00;6.00;;;;;;;18.02;80.67;98879.77;67816;1278;1018545;-62
2023/06/26 03:46:28;;;;;;;17.10;5.80;;;;;;;18.29;80.35;98882.10;67798;1278;1019856;-63
2023/06/26 03:49:31;;;;;;;21.50;5.90;;;;;;;18.40;79.86;98882.70;67814;1278;1019189;-66
2023/06/26 03:52:34;;;;;;;18.30;6.30;;;;;;;18.45;79.40;98885.20;67777;1278;1016443;-62
2023/06/26 03:55:39;;;;;;;20.00;5.90;;;;;;;18.50;80.45;98883.23;67779;1278;1015720;-65
2023/06/26 03:58:42;;;;;;;25.80;6.30;;;;;;;18.65;81.00;98885.35;67771;1278;1016194;-65
2023/06/26 04:01:44;;;;;;;25.00;7.70;;;;;;;18.89;81.97;98885.89;67760;1278;1016390;-64
2023/06/26 04:04:48;;;;;;;22.00;7.50;;;;;;;19.13;81.22;98886.33;67817;1278;1016172;-68
2023/06/26 04:07:51;;;;;;;23.10;8.80;;;;;;;19.44;80.86;98887.29;67683;1278;1016190;-68
2023/06/26 04:10:57;;;;;;;22.50;8.40;;;;;;;19.74;79.74;98886.46;67831;1278;1016334;-66
2023/06/26 04:14:00;;;;;;;19.70;7.50;;;;;;;19.98;79.66;98888.98;67700;1278;1016088;-68
2023/06/26 04:17:04;;;;;;;22.30;9.00;;;;;;;20.28;79.45;98886.91;67765;1278;1016414;-67
2023/06/26 04:20:08;;;;;;;24.10;9.60;;;;;;;20.44;78.75;98889.16;67844;1278;1015879;-68
2023/06/26 04:23:11;;;;;;;23.60;10.00;;;;;;;20.53;78.06;98889.82;67803;1278;1016430;-68
2023/06/26 04:26:15;;;;;;;22.90;9.00;;;;;;;20.61;78.66;98887.60;67797;1278;1016382;-64
2023/06/26 04:29:19;;;;;;;24.10;10.00;;;;;;;20.68;78.61;98884.81;67764;1278;1016427;-68
2023/06/26 04:32:22;;;;;;;23.70;10.00;;;;;;;20.76;77.77;98882.90;67830;1278;1016144;-62
2023/06/26 04:35:25;;;;;;;25.30;10.20;;;;;;;20.74;77.28;98882.96;67793;1278;1016201;-66
2023/06/26 04:38:29;;;;;;;26.90;9.60;;;;;;;20.74;75.90;98884.89;67754;1278;1018933;-62
2023/06/26 04:41:32;;;;;;;23.10;10.00;;;;;;;20.97;75.82;98884.15;67768;1278;1015944;-68
2023/06/26 04:44:37;;;;;;;21.90;9.20;;;;;;;21.21;75.80;98881.56;67832;1278;1016400;-66
2023/06/26 04:47:40;;;;;;;24.90;10.10;;;;;;;21.38;74.70;98881.56;67827;1278;1019184;-62
2023/06/26 04:50:45;;;;;;;25.10;9.30;;;;;;;21.46;72.90;98880.68;67824;1278;1016461;-68
2023/06/26 04:53:49;;;;;;;23.40;9.10;;;;;;;21.44;73.42;98876.56;67800;1278;1016291;-62
2023/06/26 04:56:52;;;;;;;22.40;9.00;;;;;;;21.63;72.88;98875.38;67805;1278;1016494;-63
2023/06/26 04:59:55;;;;;;;21.50;8.80;;;;;;;21.72;71.96;98877.27;67778;1278;1016267;-66
2023/06/26 05:03:00;;;;;;;22.10;8.80;;;;;;;21.83;72.23;98870.75;67812;1278;1017341;-68
2023/06/26 05:06:04;;;;;;;24.40;9.80;;;;;;;22.03;71.82;98867.87;67831;1278;1016210;-67
2023/06/26 05:09:07;;;;;;;23.50;9.80;;;;;;;22.35;70.67;98871.62;67803;1278;1016314;-65
2023/06/26 05:12:12;;;;;;;26.40;11.10;;;;;;;22.52;69.82;98870.48;67785;1278;1016393;-67
2023/06/26 05:15:15;;;;;;;24.50;8.90;;;;;;;22.62;69.84;98875.94;67794;1278;1018252;-63
2023/06/26 05:18:18;;;;;;;23.10;9.80;;;;;;;22.70;69.52;98878.98;67797;1278;1016304;-69
2023/06/26 05:21:22;;;;;;;22.60;8.70;;;;;;;22.90;69.33;98877.81;67800;1278;1016410;-63
2023/06/26 05:24:25;;;;;;;24.10;8.90;;;;;;;23.19;68.59;98877.79;67780;1278;1016299;-70
2023/06/26 05:27:28;;;;;;;23.60;8.90;;;;;;;23.28;68.71;98883.42;67807;1278;1016400;-69
2023/06/26 05:30:38;;;;;;;24.00;8.10;;;;;;;23.45;66.59;98883.44;67772;1278;1016436;-68
2023/06/26 05:33:41;;;;;;;22.90;8.30;;;;;;;23.47;66.96;98884.59;67835;1278;1016326;-70
2023/06/26 05:36:48;;;;;;;21.10;9.00;;;;;;;23.54;64.53;98882.95;67824;1278;1017109;-64
2023/06/26 05:39:50;;;;;;;23.00;8.70;;;;;;;23.54;64.88;98884.06;67725;1278;1016166;-69
2023/06/26 05:42:53;;;;;;;23.30;9.00;;;;;;;23.55;65.10;98884.76;67841;1278;1016423;-66
2023/06/26 05:45:58;;;;;;;20.80;8.00;;;;;;;23.84;64.59;98887.27;67775;1278;1016484;-70
2023/06/26 05:49:02;;;;;;;22.00;8.50;;;;;;;24.16;63.14;98883.50;67815;1278;1016199;-70
2023/06/26 05:52:05;;;;;;;24.70;8.80;;;;;;;24.36;63.47;98884.44;67821;1278;1018515;-69
2023/06/26 05:55:09;;;;;;;23.00;8.20;;;;;;;24.75;63.21;98880.34;67764;1278;1016317;-70
2023/06/26 05:58:12;;;;;;;21.30;7.70;;;;;;;25.04;62.25;98877.40;67764;1278;1016400;-70
2023/06/26 06:01:15;;;;;;;21.00;8.00;;;;;;;25.31;61.93;98873.50;67798;1278;1016321;-70
2023/06/26 06:04:18;;;;;;;21.70;8.50;;;;;;;25.70;60.93;98873.23;67806;1278;1016436;-70
2023/06/26 06:07:21;;;;;;;21.40;8.30;;;;;;;26.14;60.66;98873.71;67783;1278;1016377;-70
2023/06/26 06:10:25;;;;;;;23.10;9.40;;;;;;;26.27;59.23;98873.67;67757;1278;1016349;-70
2023/06/26 06:13:28;;;;;;;22.10;8.40;;;;;;;26.12;59.12;98870.29;67798;1278;1016206;-66
2023/06/26 06:16:31;;;;;;;26.00;8.50;;;;;;;26.31;57.15;98870.61;67759;1278;1016458;-70
2023/06/26 06:19:34;;;;;;;26.10;9.00;;;;;;;26.36;57.87;98874.16;67791;1278;1016491;-70
2023/06/26 06:22:36;;;;;;;24.70;8.60;;;;;;;26.55;57.92;98872.27;67772;1278;1016211;-69
2023/06/26 06:25:40;;;;;;;24.90;8.10;;;;;;;26.86;58.10;98873.38;67711;1278;1016162;-70
2023/06/26 06:28:43;;;;;;;18.60;6.90;;;;;;;27.07;54.39;98867.23;67821;1278;1016391;-70
2023/06/26 06:31:47;;;;;;;19.60;7.50;;;;;;;26.95;54.29;98869.91;67815;1278;1016043;-70
2023/06/26 06:34:50;;;;;;;22.10;7.00;;;;;;;27.00;55.25;98869.11;67834;1278;1016455;-70
2023/06/26 06:37:53;;;;;;;24.20;7.30;;;;;;;27.18;54.02;98868.83;67802;1278;1016584;-71
2023/06/26 06:40:56;;;;;;;19.50;7.20;;;;;;;27.33;53.92;98866.79;67826;1278;1018184;-70
2023/06/26 06:44:00;;;;;;;18.90;6.60;;;;;;;27.60;53.52;98870.09;67790;1278;1016841;-66
2023/06/26 06:47:03;;;;;;;18.40;6.40;;;;;;;27.88;54.26;98869.86;67805;1278;1016643;-70
2023/06/26 06:50:09;;;;;;;19.30;7.10;;;;;;;28.20;52.47;98865.93;67760;1278;1016448;-66
2023/06/26 06:53:13;;;;;;;20.40;7.20;;;;;;;28.52;53.53;98864.52;67809;1278;1016316;-64
2023/06/26 06:56:16;;;;;;;20.10;6.40;;;;;;;28.90;50.68;98865.47;67771;1278;1016436;-64
2023/06/26 06:59:19;;;;;;;18.50;6.30;;;;;;;28.73;49.41;98860.98;67786;1278;1016458;-64
2023/06/26 07:02:23;;;;;;;19.90;7.00;;;;;;;29.21;49.81;98861.64;67812;1278;1016284;-66
2023/06/26 07:05:26;;;;;;;18.70;6.20;;;;;;;29.36;48.90;98862.85;67752;1278;1016460;-70
2023/06/26 07:08:29;;;;;;;19.70;6.20;;;;;;;29.24;48.60;98860.59;67762;1278;1016489;-69
2023/06/26 07:11:31;;;;;;;17.40;5.80;;;;;;;29.43;47.55;98863.55;67704;1278;1016292;-65
2023/06/26 07:14:35;;;;;;;17.30;5.60;;;;;;;29.39;46.34;98858.30;67774;1278;1016488;-66
2023/06/26 07:17:39;;;;;;;17.60;5.60;;;;;;;29.20;46.70;98860.14;67762;1278;1016833;-67
2023/06/26 07:20:42;;;;;;;15.90;5.50;;;;;;;29.15;46.49;98861.61;67789;1278;1016430;-67
2023/06/26 07:23:48;;;;;;;19.80;5.70;;;;;;;29.13;45.61;98860.88;67771;1278;1016554;-67
2023/06/26 07:26:52;;;;;;;16.30;5.30;;;;;;;29.22;44.98;98859.15;67778;1278;1016301;-69
2023/06/26 07:29:54;;;;;;;16.10;5.20;;;;;;;29.54;45.20;98858.10;67752;1278;1016254;-68
2023/06/26 07:32:57;;;;;;;17.10;5.60;;;;;;;29.62;45.91;98861.73;67775;1278;1016471;-69
2023/06/26 07:36:00;;;;;;;17.50;5.70;;;;;;;29.74;43.45;98861.56;67807;1278;1016447;-69
2023/06/26 07:39:03;;;;;;;16.30;5.60;;;;;;;29.31;43.06;98863.61;67823;1278;1016500;-69
2023/06/26 07:42:07;;;;;;;16.40;5.50;;;;;;;29.32;44.76;98861.95;67768;1278;1017110;-67
2023/06/26 07:45:12;;;;;;;13.30;4.70;;;;;;;29.81;45.63;98860.23;67857;1278;1016108;-67
2023/06/26 07:48:16;;;;;;;15.80;5.30;;;;;;;30.34;44.03;98857.77;67759;1278;1016422;-69
2023/06/26 07:51:19;;;;;;;19.20;5.90;;;;;;;30.23;41.77;98855.95;67789;1278;1016311;-69
2023/06/26 07:54:22;;;;;;;18.60;5.40;;;;;;;29.89;42.86;98857.00;67780;1278;1016478;-69
2023/06/26 07:57:25;;;;;;;17.70;5.30;;;;;;;29.94;42.47;98856.69;67774;1278;1017063;-69
2023/06/26 08:00:28;;;;;;;16.80;5.10;;;;;;;29.86;41.73;98852.93;67775;1278;1016499;-69
2023/06/26 08:03:31;;;;;;;16.00;5.00;;;;;;;30.03;41.40;98853.95;67786;1278;1016461;-70
2023/06/26 08:06:34;;;;;;;17.80;5.90;;;;;;;30.20;41.42;98849.04;67821;1278;1016842;-69
2023/06/26 08:09:37;;;;;;;17.90;5.50;;;;;;;30.10;40.83;98853.02;67812;1278;1015991;-70
2023/06/26 08:12:42;;;;;;;18.50;5.30;;;;;;;30.14;41.16;98852.21;67787;1278;1016474;-69
2023/06/26 08:15:46;;;;;;;15.50;5.20;;;;;;;30.26;40.45;98850.23;67853;1278;1016477;-70
2023/06/26 08:18:49;;;;;;;15.90;5.20;;;;;;;30.22;40.46;98849.98;67786;1278;1018890;-70
2023/06/26 08:21:52;;;;;;;18.00;5.60;;;;;;;30.54;40.60;98845.34;67809;1278;1016467;-71
2023/06/26 08:24:54;;;;;;;17.70;5.60;;;;;;;30.73;40.19;98847.42;67828;1255;1016407;-69
2023/06/26 08:27:57;;;;;;;16.90;5.70;;;;;;;30.62;38.14;98847.52;67758;1278;1016484;-70
2023/06/26 08:31:00;;;;;;;16.40;5.30;;;;;;;30.66;38.76;98846.23;67796;1278;1016495;-67
2023/06/26 08:34:04;;;;;;;14.00;5.30;;;;;;;30.70;39.21;98844.72;67762;1278;1016288;-71
2023/06/26 08:37:09;;;;;;;17.90;5.40;;;;;;;30.78;38.54;98841.77;67807;1278;1016490;-73
2023/06/26 08:40:12;;;;;;;16.10;5.00;;;;;;;31.27;39.91;98842.30;67785;1278;1015799;-69
2023/06/26 08:43:15;;;;;;;18.80;5.30;;;;;;;31.70;38.07;98840.70;67814;1278;1016333;-67
2023/06/26 08:46:18;;;;;;;16.10;5.60;;;;;;;31.07;37.91;98842.73;67768;1278;1016515;-68
2023/06/26 08:49:24;;;;;;;16.70;5.60;;;;;;;30.31;38.94;98843.61;67749;1278;1016494;-69
2023/06/26 08:52:27;;;;;;;16.90;5.40;;;;;;;30.03;39.74;98842.77;67796;1278;1016423;-68
2023/06/26 08:55:31;;;;;;;17.00;6.00;;;;;;;30.07;39.58;98839.52;67844;1278;1016429;-70
2023/06/26 08:58:36;;;;;;;16.40;5.70;;;;;;;29.97;39.10;98836.02;67780;1278;1016411;-71
2023/06/26 09:01:41;;;;;;;18.80;5.80;;;;;;;29.92;39.70;98839.98;67840;1278;1016436;-65
2023/06/26 09:04:44;;;;;;;17.30;5.70;;;;;;;29.67;39.29;98838.66;67751;1278;1016270;-69
2023/06/26 09:07:47;;;;;;;18.20;6.10;;;;;;;29.47;39.04;98841.55;67817;1278;1016506;-69
2023/06/26 09:10:50;;;;;;;17.90;5.80;;;;;;;29.66;39.74;98833.66;67788;1278;1016095;-68
2023/06/26 09:13:54;;;;;;;16.50;5.60;;;;;;;30.51;39.49;98828.37;67731;1278;1016139;-68
2023/06/26 09:16:57;;;;;;;16.30;5.50;;;;;;;31.19;37.87;98829.66;67777;1278;1016468;-70
2023/06/26 09:20:00;;;;;;;19.20;5.70;;;;;;;31.40;37.02;98834.14;67751;1278;1016023;-69
2023/06/26 09:23:03;;;;;;;14.60;5.20;;;;;;;31.51;36.66;98825.95;67824;1278;1016488;-69
2023/06/26 09:26:06;;;;;;;16.30;5.40;;;;;;;31.85;36.11;98827.17;67754;1278;1018688;-70
2023/06/26 09:29:08;;;;;;;15.80;5.40;;;;;;;31.62;36.75;98828.95;67833;1278;1016174;-70
2023/06/26 09:32:11;;;;;;;16.40;5.40;;;;;;;31.81;36.08;98825.10;67798;1278;1016470;-70
2023/06/26 09:35:13;;;;;;;17.30;5.70;;;;;;;31.65;36.94;98820.02;67845;1278;1016057;-71
2023/06/26 09:38:18;;;;;;;17.90;6.20;;;;;;;31.28;36.59;98814.20;67830;1278;1016168;-69
2023/06/26 09:41:21;;;;;;;16.30;5.80;;;;;;;31.82;37.61;98815.52;67746;1278;1016478;-70
2023/06/26 09:44:25;;;;;;;16.80;5.30;;;;;;;32.18;36.50;98816.23;67798;1278;1016441;-70
2023/06/26 09:47:29;;;;;;;15.80;5.20;;;;;;;31.68;36.82;98819.45;67861;1278;1016508;-69
2023/06/26 09:50:33;;;;;;;14.50;5.10;;;;;;;31.74;36.94;98818.96;67810;1278;1016423;-69
2023/06/26 09:53:37;;;;;;;16.40;5.50;;;;;;;31.69;36.33;98819.28;67834;1278;1016280;-68
2023/06/26 09:56:47;;;;;;;15.70;5.20;;;;;;;31.80;35.65;98817.71;67771;1278;1016547;-69
2023/06/26 09:59:50;;;;;;;15.10;5.50;;;;;;;32.40;35.95;98813.31;67755;1278;1016280;-65
2023/06/26 10:02:53;;;;;;;17.20;5.10;;;;;;;33.27;35.86;98807.08;67868;1278;1016712;-69
2023/06/26 10:06:00;;;;;;;14.60;5.10;;;;;;;33.75;35.31;98801.59;67754;1278;1016231;-69
2023/06/26 10:09:03;;;;;;;14.70;4.90;;;;;;;34.42;34.78;98797.14;67837;1278;1016431;-68
2023/06/26 10:12:07;;;;;;;16.10;5.30;;;;;;;34.48;33.76;98800.55;67823;1278;1016404;-67
2023/06/26 10:15:12;;;;;;;14.30;4.80;;;;;;;34.18;32.49;98803.19;67630;1278;1016737;-67
2023/06/26 10:18:15;;;;;;;15.70;4.70;;;;;;;33.27;32.32;98799.66;67766;1278;1017728;-68
2023/06/26 10:21:17;;;;;;;16.90;5.60;;;;;;;32.39;33.57;98803.73;67695;1278;1016429;-69
2023/06/26 10:24:20;;;;;;;13.20;5.00;;;;;;;31.85;34.86;98796.90;67795;1278;1017121;-69
2023/06/26 10:27:25;;;;;;;15.00;5.00;;;;;;;31.58;34.85;98794.80;67847;1278;1016580;-69
2023/06/26 10:30:28;;;;;;;14.00;4.90;;;;;;;31.26;35.28;98791.60;67778;1278;1016527;-68
2023/06/26 10:33:32;;;;;;;15.40;5.20;;;;;;;31.05;35.58;98790.65;67786;1278;1016352;-67
2023/06/26 10:36:36;;;;;;;16.40;5.20;;;;;;;30.78;35.71;98785.20;67835;1278;1016336;-68
2023/06/26 10:39:39;;;;;;;16.40;5.50;;;;;;;30.86;36.45;98782.66;67769;1278;1015863;-68
2023/06/26 10:42:43;;;;;;;16.10;5.40;;;;;;;31.47;37.29;98778.30;67842;1278;1016142;-68
2023/06/26 10:45:46;;;;;;;15.10;5.00;;;;;;;32.43;35.84;98773.77;67732;1278;1017024;-70
2023/06/26 10:48:49;;;;;;;15.40;5.50;;;;;;;32.89;34.61;98766.79;67770;1278;1016422;-69
2023/06/26 10:51:51;;;;;;;15.50;5.50;;;;;;;33.37;33.93;98765.98;67782;1278;1016715;-70
2023/06/26 10:54:54;;;;;;;17.70;5.50;;;;;;;33.61;32.06;98765.64;67808;1278;1016380;-70
2023/06/26 10:57:58;;;;;;;12.90;4.90;;;;;;;34.02;33.50;98757.51;67805;1278;1016381;-71
2023/06/26 11:01:01;;;;;;;13.20;4.70;;;;;;;34.50;33.26;98756.35;67786;1278;1016442;-71
2023/06/26 11:04:03;;;;;;;13.40;5.30;;;;;;;34.86;31.74;98758.84;67821;1278;1017858;-71
2023/06/26 11:07:06;;;;;;;14.60;4.70;;;;;;;34.22;30.30;98765.58;67776;1278;1016685;-69
2023/06/26 11:10:09;;;;;;;16.60;5.00;;;;;;;33.23;32.13;98769.50;67819;1278;1016451;-70
2023/06/26 11:13:20;;;;;;;14.00;4.90;;;;;;;32.36;32.91;98770.83;67840;1278;1017743;-69
2023/06/26 11:16:22;;;;;;;14.80;4.90;;;;;;;31.75;33.31;98768.85;67819;1278;1016348;-69
2023/06/26 11:19:25;;;;;;;16.20;4.90;;;;;;;31.36;33.90;98764.41;67844;1278;1016548;-70
2023/06/26 11:22:29;;;;;;;15.00;5.20;;;;;;;31.09;34.60;98767.14;67749;1278;1016370;-69
2023/06/26 11:25:35;;;;;;;15.60;5.50;;;;;;;31.36;35.41;98767.61;67797;1278;1016250;-69
2023/06/26 11:28:38;;;;;;;15.70;5.10;;;;;;;32.09;35.28;98766.13;67822;1278;1016441;-70
2023/06/26 11:31:40;;;;;;;17.50;5.50;;;;;;;32.65;33.86;98760.90;67808;1278;1016408;-70
2023/06/26 11:34:47;;;;;;;14.10;5.10;;;;;;;33.18;33.12;98755.92;67774;1278;1016244;-69
2023/06/26 11:37:50;;;;;;;15.00;5.30;;;;;;;33.91;31.66;98750.58;67811;1278;1016763;-69
2023/06/26 11:40:53;;;;;;;14.70;5.00;;;;;;;34.28;31.32;98750.39;67781;1278;1016101;-70
2023/06/26 11:43:56;;;;;;;14.50;5.00;;;;;;;34.68;31.45;98747.77;67806;1278;1016065;-69
2023/06/26 11:46:58;;;;;;;15.70;5.10;;;;;;;35.00;31.11;98745.11;67815;1278;1019689;-73
2023/06/26 11:50:01;;;;;;;12.30;4.70;;;;;;;35.42;32.25;98743.66;67776;1278;1016509;-66
2023/06/26 11:53:05;;;;;;;12.80;4.50;;;;;;;35.91;30.23;98744.25;67702;1278;1016387;-66
2023/06/26 11:56:08;;;;;;;14.40;5.00;;;;;;;35.76;29.28;98745.64;67690;1278;1016048;-66
2023/06/26 11:59:10;;;;;;;12.60;4.60;;;;;;;35.07;27.86;98743.87;67776;1278;1016243;-69
2023/06/26 12:02:13;;;;;;;12.60;4.70;;;;;;;34.56;29.02;98739.83;67810;1278;1016483;-71
2023/06/26 12:05:16;;;;;;;14.10;4.30;;;;;;;34.89;29.03;98737.41;67774;1278;1016165;-72
2023/06/26 12:08:19;;;;;;;17.30;4.60;;;;;;;34.86;27.40;98733.61;67848;1278;1016516;-72
2023/06/26 12:11:22;;;;;;;15.10;4.60;;;;;;;34.95;28.27;98724.59;67829;1278;1016305;-68
2023/06/26 12:14:25;;;;;;;13.40;4.20;;;;;;;34.49;27.71;98733.80;67685;1278;1016504;-72
2023/06/26 12:17:28;;;;;;;13.60;4.70;;;;;;;34.18;28.28;98739.23;67729;1278;1018789;-66
2023/06/26 12:20:32;;;;;;;15.10;4.60;;;;;;;33.92;28.52;98732.33;67773;1278;1016503;-72
2023/06/26 12:23:36;;;;;;;12.80;4.70;;;;;;;33.66;29.27;98728.47;67875;1278;1018561;-72
2023/06/26 12:26:38;;;;;;;21.00;6.00;;;;;;;33.59;30.07;98729.21;67769;1278;1015897;-72
2023/06/26 12:29:41;;;;;;;12.30;4.40;;;;;;;33.68;30.33;98727.25;67845;1278;1016723;-73
2023/06/26 12:32:44;;;;;;;21.80;5.10;;;;;;;33.72;30.11;98727.86;67796;1278;1016426;-73
2023/06/26 12:35:46;;;;;;;13.50;5.00;;;;;;;33.45;29.18;98726.16;67735;1278;1016360;-71
2023/06/26 12:38:49;;;;;;;15.70;4.40;;;;;;;33.51;29.36;98720.22;67878;1278;1016402;-73
2023/06/26 12:41:56;;;;;;;14.10;4.80;;;;;;;33.53;29.91;98714.88;67840;1278;1016460;-73
2023/06/26 12:44:58;;;;;;;12.60;4.50;;;;;;;33.76;28.25;98712.64;67698;1278;1016804;-73
2023/06/26 12:48:02;;;;;;;14.20;4.70;;;;;;;33.90;28.30;98716.09;67823;1278;1016393;-72
2023/06/26 12:51:05;;;;;;;14.20;4.70;;;;;;;33.88;28.37;98708.11;67798;1278;1016269;-73
2023/06/26 12:54:08;;;;;;;13.90;4.30;;;;;;;34.31;29.65;98700.20;67775;1278;1016315;-73
2023/06/26 12:57:10;;;;;;;11.00;4.30;;;;;;;34.56;27.70;98696.38;67808;1278;1016734;-73
2023/06/26 13:00:13;;;;;;;13.80;4.80;;;;;;;34.41;28.12;98692.81;67857;1278;1016412;-73
2023/06/26 13:03:16;;;;;;;13.60;4.90;;;;;;;33.93;27.84;98689.73;67847;1278;1016455;-73
2023/06/26 13:06:19;;;;;;;13.30;4.60;;;;;;;34.21;29.58;98681.74;67789;1278;1016612;-73
2023/06/26 13:09:22;;;;;;;12.40;4.40;;;;;;;34.94;29.62;98676.54;67818;1278;1016460;-72
2023/06/26 13:12:25;;;;;;;13.80;4.70;;;;;;;35.08;27.42;98686.50;67826;1278;1016475;-73
2023/06/26 13:15:28;;;;;;;12.10;4.10;;;;;;;34.62;27.92;98681.52;67798;1278;1016119;-72
2023/06/26 13:18:31;;;;;;;13.80;4.30;;;;;;;34.33;27.48;98682.91;67844;1278;1017223;-73
2023/06/26 13:21:34;;;;;;;13.60;4.20;;;;;;;34.37;27.87;98673.39;67797;1278;1016124;-69
2023/06/26 13:24:38;;;;;;;13.00;4.60;;;;;;;34.69;28.30;98667.78;67840;1278;1016373;-73
2023/06/26 13:27:48;;;;;;;12.90;4.30;;;;;;;35.44;28.68;98666.94;67840;1278;1016151;-74
2023/06/26 13:30:50;;;;;;;12.70;4.50;;;;;;;35.62;26.97;98672.98;67759;1278;1016170;-72
2023/06/26 13:33:54;;;;;;;12.20;4.50;;;;;;;34.82;26.45;98668.89;67844;1278;1016452;-73
2023/06/26 13:36:59;;;;;;;11.40;4.50;;;;;;;34.54;28.13;98659.02;67806;1278;1016276;-67
2023/06/26 13:40:02;;;;;;;13.80;4.60;;;;;;;34.95;28.70;98658.20;67751;1278;1016145;-69
2023/06/26 13:43:06;;;;;;;13.60;4.80;;;;;;;35.31;28.00;98659.32;67812;1278;1016396;-71
2023/06/26 13:46:09;;;;;;;13.10;4.30;;;;;;;35.64;27.16;98657.73;67810;1278;1016437;-66
2023/06/26 13:49:13;;;;;;;13.20;4.60;;;;;;;35.03;26.97;98653.75;67872;1278;1016410;-70
2023/06/26 13:52:17;;;;;;;13.40;4.50;;;;;;;34.01;27.45;98657.21;67844;1278;1016189;-74
2023/06/26 13:55:22;;;;;;;14.40;4.60;;;;;;;33.56;28.25;98652.79;67797;1278;1016267;-71
2023/06/26 13:58:26;;;;;;;12.70;4.40;;;;;;;33.78;29.52;98651.76;67851;1278;1016281;-71